Dades meteomassalio
Diari Summary for Setembre 29, 2017 Units:  English    Metric   Both
« Previous Day
Next Day »
Diari Semanal Mensual Anual Personalitzat
  Maxima: Minima: Mijana:
Temperatura: TemperatureC °F 8.3 °F 16.4 °F
Rosada: DewpointC °F 6.8 °F 10.6 °F
Humitat: Humidity % 36 % 71 %
Velocitat del vent: WindSpeedKMH mph 0.0 mph 1.6 mph
Racha vent: WindSpeedGustKMH mph - -
Vent:- - South
Pressio: PressurehPa in 1020.9 in -
Pluja: 0.0 in    
Historical Graphs
 
 
Tabular Data for Setembre 29, 2017
Time Temperature Dew Point Pressure Wind Wind Speed Wind Gust Humidity Rainfall Rate (Hourly) solar Conditions
TemperatureC °F DewpointC °F PressurehPa in Calm     Humidity % HourlyPrecipMM in SolarRadiationWatts/m^2 W/m2 Conditions
00:02 12.8 °F 9.4 °F 1024.9 in Calm     80 % 0.0 in 0.0 W/m2 CLR
00:07 12.8 °F 9.4 °F 1024.9 in Calm     80 % 0.0 in 0.0 W/m2 CLR
00:08 12.8 °F 9.4 °F 1024.9 in Calm     80 % 0.0 in 0.0 W/m2 CLR
00:13 12.8 °F 9.6 °F 1024.9 in Calm     81 % 0.0 in 0.0 W/m2 CLR
00:18 12.8 °F 9.8 °F 1025.3 in Calm     82 % 0.0 in 0.0 W/m2 CLR
00:23 12.8 °F 9.6 °F 1025.3 in Calm     81 % 0.0 in 0.0 W/m2 CLR
00:28 12.8 °F 9.8 °F 1025.3 in Calm     82 % 0.0 in 0.0 W/m2 CLR
00:33 12.8 °F 9.8 °F 1025.3 in Calm     82 % 0.0 in 0.0 W/m2 CLR
00:38 12.8 °F 9.8 °F 1025.3 in Calm     82 % 0.0 in 0.0 W/m2 CLR
00:43 12.2 °F 9.2 °F 1025.3 in Calm     82 % 0.0 in 0.0 W/m2 CLR
00:48 12.2 °F 9.4 °F 1024.9 in Calm     83 % 0.0 in 0.0 W/m2 CLR
00:53 12.2 °F 9.4 °F 1024.9 in Calm     83 % 0.0 in 0.0 W/m2 CLR
00:58 12.2 °F 9.6 °F 1024.9 in Calm     84 % 0.0 in 0.0 W/m2 CLR
01:03 12.2 °F 9.8 °F 1024.9 in Calm     85 % 0.0 in 0.0 W/m2 CLR
01:08 11.7 °F 9.1 °F 1024.9 in Calm     84 % 0.0 in 0.0 W/m2 CLR
01:13 11.7 °F 9.1 °F 1024.9 in Calm     84 % 0.0 in 0.0 W/m2 CLR
01:18 11.7 °F 9.1 °F 1024.9 in Calm     84 % 0.0 in 0.0 W/m2 CLR
01:23 11.1 °F 8.5 °F 1024.9 in Calm     84 % 0.0 in 0.0 W/m2 CLR
01:28 11.1 °F 8.5 °F 1024.9 in Calm     84 % 0.0 in 0.0 W/m2 CLR
01:33 11.1 °F 8.5 °F 1024.9 in Calm     84 % 0.0 in 0.0 W/m2 CLR
01:38 11.1 °F 8.7 °F 1024.9 in Calm     85 % 0.0 in 0.0 W/m2 CLR
01:43 11.1 °F 8.7 °F 1024.9 in Calm     85 % 0.0 in 0.0 W/m2 CLR
01:48 11.1 °F 8.7 °F 1024.9 in Calm     85 % 0.0 in 0.0 W/m2 CLR
01:53 10.6 °F 8.1 °F 1024.9 in Calm     85 % 0.0 in 0.0 W/m2 CLR
01:58 10.6 °F 8.3 °F 1024.9 in Calm     86 % 0.0 in 0.0 W/m2 CLR
02:03 10.6 °F 8.3 °F 1024.9 in Calm     86 % 0.0 in 0.0 W/m2 CLR
02:08 10.6 °F 8.3 °F 1024.9 in Calm     86 % 0.0 in 0.0 W/m2 CLR
02:13 10.6 °F 8.3 °F 1024.9 in Calm     86 % 0.0 in 0.0 W/m2 CLR
02:18 10.6 °F 8.3 °F 1024.9 in Calm     86 % 0.0 in 0.0 W/m2 CLR
02:23 10.6 °F 8.3 °F 1024.9 in Calm     86 % 0.0 in 0.0 W/m2 CLR
02:28 10.6 °F 8.5 °F 1024.9 in Calm     87 % 0.0 in 0.0 W/m2 CLR
02:33 10.6 °F 8.5 °F 1024.9 in Calm     87 % 0.0 in 0.0 W/m2 CLR
02:38 10.6 °F 8.5 °F 1024.9 in Calm     87 % 0.0 in 0.0 W/m2 CLR
02:43 10.6 °F 8.5 °F 1024.9 in Calm     87 % 0.0 in 0.0 W/m2 CLR
02:48 10.6 °F 8.5 °F 1024.9 in Calm     87 % 0.0 in 0.0 W/m2 CLR
02:53 10.0 °F 7.9 °F 1024.9 in Calm     87 % 0.0 in 0.0 W/m2 CLR
02:58 10.0 °F 7.9 °F 1024.9 in Calm     87 % 0.0 in 0.0 W/m2 CLR
03:03 10.0 °F 7.9 °F 1024.9 in Calm     87 % 0.0 in 0.0 W/m2 CLR
03:08 10.0 °F 8.1 °F 1024.9 in Calm     88 % 0.0 in 0.0 W/m2 CLR
03:13 10.0 °F 8.1 °F 1024.9 in Calm     88 % 0.0 in 0.0 W/m2 CLR
03:18 10.0 °F 8.1 °F 1024.9 in Calm     88 % 0.0 in 0.0 W/m2 CLR
03:23 10.0 °F 8.1 °F 1024.9 in Calm     88 % 0.0 in 0.0 W/m2 CLR
03:28 10.0 °F 8.1 °F 1024.9 in Calm     88 % 0.0 in 0.0 W/m2 CLR
03:33 10.0 °F 8.1 °F 1024.9 in Calm     88 % 0.0 in 0.0 W/m2 CLR
03:38 9.4 °F 7.6 °F 1024.9 in Calm     88 % 0.0 in 0.0 W/m2 CLR
03:43 9.4 °F 7.6 °F 1024.9 in Calm     88 % 0.0 in 0.0 W/m2 CLR
03:48 9.4 °F 7.6 °F 1024.9 in Calm     88 % 0.0 in 0.0 W/m2 CLR
03:53 9.4 °F 7.6 °F 1024.9 in Calm     88 % 0.0 in 0.0 W/m2 CLR
03:58 9.4 °F 7.7 °F 1024.6 in Calm     89 % 0.0 in 0.0 W/m2 CLR
04:03 9.4 °F 7.7 °F 1024.6 in Calm     89 % 0.0 in 0.0 W/m2 CLR
04:08 9.4 °F 7.7 °F 1024.6 in Calm     89 % 0.0 in 0.0 W/m2 CLR
04:13 9.4 °F 7.7 °F 1024.6 in Calm     89 % 0.0 in 0.0 W/m2 CLR
04:18 9.4 °F 7.7 °F 1024.6 in Calm     89 % 0.0 in 0.0 W/m2 CLR
04:23 9.4 °F 7.7 °F 1024.6 in Calm     89 % 0.0 in 0.0 W/m2 CLR
04:28 8.9 °F 7.2 °F 1024.6 in Calm     89 % 0.0 in 0.0 W/m2 CLR
04:33 8.9 °F 7.2 °F 1024.6 in Calm     89 % 0.0 in 0.0 W/m2 CLR
04:38 8.9 °F 7.2 °F 1024.6 in Calm     89 % 0.0 in 0.0 W/m2 CLR
04:43 8.9 °F 7.2 °F 1024.6 in Calm     89 % 0.0 in 0.0 W/m2 CLR
04:48 9.4 °F 7.9 °F 1024.6 in Calm     90 % 0.0 in 0.0 W/m2 CLR
04:53 9.4 °F 7.9 °F 1024.6 in Calm     90 % 0.0 in 0.0 W/m2 CLR
04:58 10.0 °F 8.4 °F 1024.6 in Calm     90 % 0.0 in 0.0 W/m2 CLR
05:03 9.4 °F 7.9 °F 1024.6 in Calm     90 % 0.0 in 0.0 W/m2 CLR
05:08 9.4 °F 7.9 °F 1024.3 in Calm     90 % 0.0 in 0.0 W/m2 CLR
05:14 9.4 °F 7.9 °F 1024.3 in Calm     90 % 0.0 in 0.0 W/m2 CLR
05:19 9.4 °F 7.9 °F 1024.3 in Calm     90 % 0.0 in 0.0 W/m2 CLR
05:22 9.4 °F 7.9 °F 1024.3 in Calm     90 % 0.0 in 0.0 W/m2 CLR
05:24 9.4 °F 7.9 °F 1024.3 in Calm     90 % 0.0 in 0.0 W/m2 CLR
05:25 8.9 °F 7.3 °F 1024.3 in Calm     90 % 0.0 in 0.0 W/m2 CLR
05:28 8.9 °F 7.3 °F 1024.3 in Calm     90 % 0.0 in 0.0 W/m2 CLR
05:29 8.9 °F 7.3 °F 1024.3 in Calm     90 % 0.0 in 0.0 W/m2 CLR
05:33 8.9 °F 7.3 °F 1024.3 in Calm     90 % 0.0 in 0.0 W/m2 CLR
05:37 8.9 °F 7.3 °F 1024.3 in Calm     90 % 0.0 in 0.0 W/m2 CLR
05:42 8.9 °F 7.3 °F 1024.3 in Calm     90 % 0.0 in 0.0 W/m2 CLR
05:47 8.9 °F 7.3 °F 1024.3 in Calm     90 % 0.0 in 0.0 W/m2 CLR
05:52 8.9 °F 7.3 °F 1024.6 in Calm     90 % 0.0 in 0.0 W/m2 CLR
05:57 9.4 °F 7.9 °F 1024.3 in Calm     90 % 0.0 in 0.0 W/m2 CLR
06:02 9.4 °F 7.9 °F 1024.6 in Calm     90 % 0.0 in 0.0 W/m2 CLR
06:07 9.4 °F 8.1 °F 1024.6 in Calm     91 % 0.0 in 0.0 W/m2 CLR
06:12 8.9 °F 7.5 °F 1024.6 in Calm     91 % 0.0 in 0.0 W/m2 CLR
06:17 8.9 °F 7.3 °F 1024.6 in Calm     90 % 0.0 in 0.0 W/m2 CLR
06:22 8.9 °F 7.5 °F 1024.6 in Calm     91 % 0.0 in 0.0 W/m2 CLR
06:27 8.9 °F 7.3 °F 1024.6 in Calm     90 % 0.0 in 0.0 W/m2 CLR
06:32 8.3 °F 6.9 °F 1024.6 in Calm     91 % 0.0 in 0.0 W/m2 CLR
06:37 8.3 °F 6.8 °F 1024.6 in Calm     90 % 0.0 in 0.0 W/m2 CLR
06:42 8.3 °F 6.8 °F 1024.6 in Calm     90 % 0.0 in 0.0 W/m2 CLR
06:47 8.3 °F 6.8 °F 1024.6 in Calm     90 % 0.0 in 0.0 W/m2 CLR
06:52 8.3 °F 6.8 °F 1024.6 in Calm     90 % 0.0 in 0.0 W/m2 CLR
06:57 8.3 °F 6.8 °F 1024.6 in Calm     90 % 0.0 in 0.0 W/m2 CLR
07:02 8.3 °F 6.9 °F 1024.6 in Calm     91 % 0.0 in 0.0 W/m2 CLR
07:07 8.3 °F 6.9 °F 1024.6 in Calm     91 % 0.0 in 0.0 W/m2 CLR
07:12 8.3 °F 6.9 °F 1024.6 in Calm     91 % 0.0 in 0.0 W/m2 CLR
07:17 8.3 °F 6.9 °F 1024.6 in Calm     91 % 0.0 in 0.0 W/m2 CLR
07:22 8.3 °F 6.9 °F 1024.6 in Calm     91 % 0.0 in 0.0 W/m2 CLR
07:27 8.3 °F 6.9 °F 1024.9 in Calm     91 % 0.0 in 0.0 W/m2 CLR
07:32 8.3 °F 6.9 °F 1024.9 in Calm     91 % 0.0 in 0.0 W/m2 CLR
07:37 8.3 °F 7.1 °F 1024.9 in Calm     92 % 0.0 in 0.0 W/m2 CLR
07:42 8.3 °F 6.9 °F 1024.9 in Calm     91 % 0.0 in 0.0 W/m2 CLR
07:47 8.3 °F 6.9 °F 1024.9 in Calm     91 % 0.0 in 0.0 W/m2 OVC
07:52 8.3 °F 6.9 °F 1024.9 in Calm     91 % 0.0 in 0.0 W/m2 OVC
07:57 8.3 °F 6.9 °F 1024.9 in Calm     91 % 0.0 in 7.0 W/m2 OVC
08:02 8.3 °F 6.9 °F 1024.9 in Calm     91 % 0.0 in 9.0 W/m2 BKN
08:07 8.3 °F 7.1 °F 1024.9 in Calm     92 % 0.0 in 12.0 W/m2 BKN
08:12 8.3 °F 7.1 °F 1024.9 in Calm     92 % 0.0 in 16.0 W/m2 BKN
08:17 8.3 °F 7.1 °F 1024.9 in Calm     92 % 0.0 in 19.0 W/m2 BKN
08:22 8.3 °F 7.1 °F 1025.3 in Calm     92 % 0.0 in 26.0 W/m2 BKN
08:27 8.3 °F 7.1 °F 1025.3 in Calm     92 % 0.0 in 33.0 W/m2 BKN
08:32 8.3 °F 7.1 °F 1025.3 in Calm     92 % 0.0 in 46.0 W/m2 BKN
08:37 8.3 °F 7.1 °F 1025.3 in Calm     92 % 0.0 in 51.0 W/m2 SCT
08:42 8.9 °F 7.7 °F 1025.3 in Calm     92 % 0.0 in 62.0 W/m2 SCT
08:47 8.9 °F 7.7 °F 1025.3 in Calm     92 % 0.0 in 77.0 W/m2 FEW
08:52 8.9 °F 7.5 °F 1025.3 in Calm     91 % 0.0 in 90.0 W/m2 CLR
08:57 9.4 °F 8.1 °F 1025.3 in Calm     91 % 0.0 in 109.0 W/m2 CLR
09:02 10.0 °F 8.4 °F 1025.3 in Calm     90 % 0.0 in 111.0 W/m2 CLR
09:07 10.0 °F 8.4 °F 1025.3 in Calm     90 % 0.0 in 91.0 W/m2 CLR
09:12 10.6 °F 9.0 °F 1025.3 in Calm     90 % 0.0 in 155.0 W/m2 CLR
09:17 10.6 °F 9.0 °F 1025.3 in Calm     90 % 0.0 in 174.0 W/m2 CLR
09:22 11.1 °F 9.6 °F 1025.3 in Calm     90 % 0.0 in 190.0 W/m2 CLR
09:27 11.7 °F 9.9 °F 1025.3 in Calm     89 % 0.0 in 206.0 W/m2 CLR
09:32 12.2 °F 10.3 °F 1025.3 in Calm     88 % 0.0 in 223.0 W/m2 CLR
09:37 12.2 °F 10.1 °F 1025.3 in Calm     87 % 0.0 in 243.0 W/m2 CLR
09:42 12.8 °F 10.5 °F 1025.3 in Calm     86 % 0.0 in 258.0 W/m2 CLR
09:47 13.3 °F 10.7 °F 1025.3 in Calm     84 % 0.0 in 272.0 W/m2 CLR
09:53 13.9 °F 11.1 °F 1025.3 in Calm     83 % 0.0 in 288.0 W/m2 CLR
09:58 14.4 °F 11.6 °F 1025.3 in Calm     83 % 0.0 in 302.0 W/m2 CLR
10:03 15.0 °F 11.9 °F 1025.3 in Calm     82 % 0.0 in 320.0 W/m2 CLR
10:08 15.6 °F 12.5 °F 1025.3 in Calm     82 % 0.0 in 332.0 W/m2 CLR
10:13 15.6 °F 12.5 °F 1025.3 in Calm     82 % 0.0 in 348.0 W/m2 CLR
10:18 16.1 °F 12.8 °F 1025.3 in Calm     81 % 0.0 in 362.0 W/m2 CLR
10:23 16.1 °F 12.4 °F 1025.3 in Calm     79 % 0.0 in 378.0 W/m2 CLR
10:28 16.7 °F 13.0 °F 1025.3 in Calm     79 % 0.0 in 392.0 W/m2 CLR
10:33 17.2 °F 13.6 °F 1025.3 in Calm     79 % 0.0 in 406.0 W/m2 CLR
10:38 17.2 °F 13.3 °F 1025.3 in Calm     78 % 0.0 in 420.0 W/m2 CLR
10:43 17.8 °F 13.7 °F 1025.3 in Calm     77 % 0.0 in 434.0 W/m2 CLR
10:48 17.8 °F 13.5 °F 1025.3 in Calm     76 % 0.0 in 446.0 W/m2 CLR
10:53 18.3 °F 14.0 °F 1025.3 in Calm     76 % 0.0 in 459.0 W/m2 CLR
10:58 18.3 °F 13.6 °F 1025.3 in Calm     74 % 0.0 in 471.0 W/m2 CLR
11:03 18.3 °F 13.4 °F 1025.3 in Calm     73 % 0.0 in 485.0 W/m2 CLR
11:08 18.3 °F 13.4 °F 1025.3 in Calm     73 % 0.0 in 497.0 W/m2 CLR
11:13 18.3 °F 13.4 °F 1025.3 in Calm     73 % 0.0 in 508.0 W/m2 CLR
11:18 18.9 °F 13.7 °F 1025.3 in Calm     72 % 0.0 in 519.0 W/m2 CLR
11:23 19.4 °F 14.3 °F 1025.3 in Calm     72 % 0.0 in 531.0 W/m2 CLR
11:28 19.4 °F 14.1 °F 1024.9 in Calm     71 % 0.0 in 543.0 W/m2 CLR
11:33 20.0 °F 14.6 °F 1025.3 in North 5.6 mph 5.6 mph 71 % 0.0 in 554.0 W/m2 CLR
11:38 20.6 °F 14.9 °F 1024.9 in North 6.4 mph 6.4 mph 70 % 0.0 in 563.0 W/m2 CLR
11:43 20.6 °F 14.7 °F 1024.9 in NNE 3.7 mph 3.7 mph 69 % 0.0 in 571.0 W/m2 CLR
11:48 21.1 °F 15.2 °F 1024.9 in North 9.3 mph 9.3 mph 69 % 0.0 in 584.0 W/m2 CLR
11:49 21.1 °F 15.0 °F 1024.9 in NNW 9.3 mph 9.3 mph 68 % 0.0 in 584.0 W/m2 CLR
11:54 21.1 °F 15.0 °F 1024.9 in NNE 9.3 mph 9.3 mph 68 % 0.0 in 596.0 W/m2 CLR
11:59 21.7 °F 15.5 °F 1024.9 in NNE 6.4 mph 6.4 mph 68 % 0.0 in 603.0 W/m2 CLR
12:04 21.7 °F 15.5 °F 1024.9 in North 5.6 mph 5.6 mph 68 % 0.0 in 612.0 W/m2 CLR
12:09 21.7 °F 15.5 °F 1024.9 in NNW 9.3 mph 9.3 mph 68 % 0.0 in 622.0 W/m2 CLR
12:14 22.2 °F 15.8 °F 1024.9 in Calm     67 % 0.0 in 628.0 W/m2 CLR
12:19 21.7 °F 14.8 °F 1024.6 in Calm     65 % 0.0 in 638.0 W/m2 CLR
12:24 21.7 °F 14.6 °F 1024.9 in Calm     64 % 0.0 in 643.0 W/m2 CLR
12:29 21.7 °F 14.3 °F 1024.6 in Calm     63 % 0.0 in 649.0 W/m2 CLR
12:34 21.7 °F 14.1 °F 1024.6 in Calm     62 % 0.0 in 657.0 W/m2 CLR
12:39 22.8 °F 15.4 °F 1024.6 in Calm     63 % 0.0 in 668.0 W/m2 CLR
12:44 22.8 °F 15.4 °F 1024.6 in ENE 7.4 mph 7.4 mph 63 % 0.0 in 670.0 W/m2 CLR
12:49 23.3 °F 15.9 °F 1024.6 in Calm     63 % 0.0 in 673.0 W/m2 CLR
12:54 23.9 °F 16.4 °F 1024.3 in NNW 3.2 mph 3.2 mph 63 % 0.0 in 677.0 W/m2 CLR
12:59 23.9 °F 16.2 °F 1024.3 in NNW 7.4 mph 7.4 mph 62 % 0.0 in 684.0 W/m2 CLR
13:04 23.3 °F 15.4 °F 1024.3 in WNW 7.4 mph 7.4 mph 61 % 0.0 in 687.0 W/m2 CLR
13:09 23.3 °F 15.4 °F 1024.3 in Calm     61 % 0.0 in 693.0 W/m2 CLR
13:14 23.3 °F 15.1 °F 1024.3 in Calm     60 % 0.0 in 694.0 W/m2 CLR
13:19 23.3 °F 15.1 °F 1024.3 in Calm     60 % 0.0 in 700.0 W/m2 CLR
13:24 23.9 °F 15.4 °F 1024.3 in Calm   0.5 mph 59 % 0.0 in 701.0 W/m2 CLR
13:29 23.9 °F 15.1 °F 1023.9 in Calm     58 % 0.0 in 705.0 W/m2 CLR
13:34 23.9 °F 15.1 °F 1023.9 in Calm     58 % 0.0 in 705.0 W/m2 CLR
13:39 23.9 °F 14.8 °F 1023.9 in Calm     57 % 0.0 in 707.0 W/m2 CLR
13:44 24.4 °F 15.1 °F 1023.9 in Calm     56 % 0.0 in 708.0 W/m2 CLR
13:49 24.4 °F 14.8 °F 1023.9 in Calm     55 % 0.0 in 708.0 W/m2 CLR
13:54 23.9 °F 13.4 °F 1023.9 in Calm     52 % 0.0 in 712.0 W/m2 CLR
13:59 24.4 °F 13.9 °F 1023.6 in Calm     52 % 0.0 in 708.0 W/m2 CLR
14:04 24.4 °F 13.7 °F 1023.6 in NNW 13.0 mph 13.0 mph 51 % 0.0 in 708.0 W/m2 CLR
14:09 25.0 °F 13.2 °F 1023.6 in Calm     48 % 0.0 in 707.0 W/m2 CLR
14:14 25.6 °F 14.4 °F 1023.6 in North 8.0 mph 8.0 mph 50 % 0.0 in 707.0 W/m2 CLR
14:19 25.6 °F 14.1 °F 1023.6 in Calm     49 % 0.0 in 705.0 W/m2 CLR
14:24 25.6 °F 13.7 °F 1023.2 in Calm     48 % 0.0 in 703.0 W/m2 CLR
14:29 25.0 °F 13.8 °F 1023.2 in NNW 5.6 mph 5.6 mph 50 % 0.0 in 700.0 W/m2 CLR
14:34 25.6 °F 13.7 °F 1023.2 in Calm     48 % 0.0 in 694.0 W/m2 CLR
14:39 25.6 °F 13.4 °F 1023.2 in North 3.7 mph 3.7 mph 47 % 0.0 in 693.0 W/m2 CLR
14:40 25.6 °F 13.7 °F 1023.2 in Calm     48 % 0.0 in 693.0 W/m2 CLR
14:45 26.1 °F 12.9 °F 1022.9 in Calm     44 % 0.0 in 691.0 W/m2 CLR
14:50 26.1 °F 13.9 °F 1022.9 in North 8.0 mph 8.0 mph 47 % 0.0 in 682.0 W/m2 CLR
14:55 26.1 °F 13.9 °F 1022.9 in Calm     47 % 0.0 in 677.0 W/m2 CLR
15:00 26.1 °F 13.2 °F 1022.9 in NNE 9.3 mph 9.3 mph 45 % 0.0 in 673.0 W/m2 CLR
15:05 26.7 °F 14.4 °F 1022.9 in Calm     47 % 0.0 in 666.0 W/m2 CLR
15:10 26.7 °F 14.1 °F 1022.9 in WNW 5.6 mph 5.6 mph 46 % 0.0 in 659.0 W/m2 CLR
15:15 26.1 °F 12.9 °F 1022.6 in Calm     44 % 0.0 in 652.0 W/m2 CLR
15:20 26.7 °F 13.4 °F 1022.6 in Calm     44 % 0.0 in 649.0 W/m2 CLR
15:25 26.7 °F 13.4 °F 1022.6 in NNW 3.2 mph 3.2 mph 44 % 0.0 in 642.0 W/m2 CLR
15:30 26.7 °F 13.4 °F 1022.6 in NW 6.4 mph 6.4 mph 44 % 0.0 in 636.0 W/m2 CLR
15:35 26.7 °F 13.4 °F 1022.2 in North 1.9 mph 1.9 mph 44 % 0.0 in 628.0 W/m2 CLR
15:40 27.2 °F 13.9 °F 1022.2 in Calm     44 % 0.0 in 619.0 W/m2 CLR
15:45 27.2 °F 13.6 °F 1022.2 in Calm     43 % 0.0 in 610.0 W/m2 CLR
15:50 26.7 °F 12.7 °F 1021.9 in WNW 7.4 mph 7.4 mph 42 % 0.0 in 601.0 W/m2 CLR
15:55 26.7 °F 12.7 °F 1021.9 in NW 7.4 mph 7.4 mph 42 % 0.0 in 592.0 W/m2 CLR
16:00 26.7 °F 12.3 °F 1021.9 in Calm     41 % 0.0 in 584.0 W/m2 CLR
16:05 27.2 °F 12.8 °F 1021.9 in Calm     41 % 0.0 in 575.0 W/m2 CLR
16:10 27.2 °F 12.4 °F 1021.9 in NW 9.3 mph 9.3 mph 40 % 0.0 in 566.0 W/m2 CLR
16:15 27.8 °F 12.9 °F 1021.9 in Calm     40 % 0.0 in 554.0 W/m2 CLR
16:20 27.8 °F 12.6 °F 1021.6 in Calm     39 % 0.0 in 540.0 W/m2 CLR
16:25 27.2 °F 12.4 °F 1021.6 in WNW 1.9 mph 1.9 mph 40 % 0.0 in 529.0 W/m2 CLR
16:30 27.8 °F 12.6 °F 1021.6 in Calm     39 % 0.0 in 517.0 W/m2 CLR
16:35 27.8 °F 12.6 °F 1021.6 in NNW 4.8 mph 4.8 mph 39 % 0.0 in 504.0 W/m2 CLR
16:40 28.3 °F 12.7 °F 1021.6 in Calm     38 % 0.0 in 492.0 W/m2 CLR
16:45 28.3 °F 12.7 °F 1021.6 in NNW 7.4 mph 7.4 mph 38 % 0.0 in 478.0 W/m2 CLR
16:50 27.8 °F 12.2 °F 1021.2 in WNW 11.1 mph 11.1 mph 38 % 0.0 in 466.0 W/m2 CLR
16:55 27.8 °F 12.2 °F 1021.2 in Calm     38 % 0.0 in 454.0 W/m2 CLR
17:00 27.8 °F 12.2 °F 1021.2 in WNW 7.4 mph 7.4 mph 38 % 0.0 in 438.0 W/m2 CLR
17:05 27.2 °F 11.7 °F 1021.2 in WNW 5.6 mph 5.6 mph 38 % 0.0 in 427.0 W/m2 CLR
17:10 27.2 °F 11.3 °F 1021.2 in Calm     37 % 0.0 in 411.0 W/m2 CLR
17:15 27.2 °F 11.3 °F 1021.2 in NNW 6.4 mph 6.4 mph 37 % 0.0 in 396.0 W/m2 CLR
17:20 27.2 °F 10.8 °F 1021.2 in North 7.4 mph 7.4 mph 36 % 0.0 in 381.0 W/m2 CLR
17:25 27.2 °F 10.8 °F 1021.2 in Calm     36 % 0.0 in 366.0 W/m2 CLR
17:30 27.2 °F 10.8 °F 1020.9 in Calm     36 % 0.0 in 353.0 W/m2 CLR
17:35 27.8 °F 11.3 °F 1020.9 in Calm     36 % 0.0 in 339.0 W/m2 CLR
17:40 27.8 °F 11.3 °F 1020.9 in Calm     36 % 0.0 in 325.0 W/m2 CLR
17:45 27.2 °F 10.8 °F 1020.9 in Calm     36 % 0.0 in 309.0 W/m2 CLR
17:50 27.2 °F 11.7 °F 1020.9 in NNW 3.7 mph 3.7 mph 38 % 0.0 in 294.0 W/m2 CLR
17:55 27.2 °F 12.8 °F 1020.9 in NNW 5.6 mph 5.6 mph 41 % 0.0 in 278.0 W/m2 CLR
18:05 26.7 °F 14.1 °F 1020.9 in NE 16.7 mph 16.7 mph 46 % 0.0 in 244.0 W/m2 CLR
18:10 26.1 °F 14.2 °F 1020.9 in North 14.8 mph 14.8 mph 48 % 0.0 in 227.0 W/m2 CLR
18:15 26.1 °F 14.9 °F 1020.9 in North 9.3 mph 9.3 mph 50 % 0.0 in 209.0 W/m2 CLR
18:20 26.1 °F 14.9 °F 1020.9 in NE 14.8 mph 14.8 mph 50 % 0.0 in 192.0 W/m2 CLR
18:25 25.6 °F 14.7 °F 1020.9 in NE 14.8 mph 14.8 mph 51 % 0.0 in 174.0 W/m2 CLR
18:30 25.6 °F 14.7 °F 1020.9 in NE 16.7 mph 16.7 mph 51 % 0.0 in 155.0 W/m2 CLR
18:35 25.6 °F 14.9 °F 1020.9 in NNE 9.3 mph 9.3 mph 52 % 0.0 in 139.0 W/m2 CLR
18:40 25.0 °F 14.4 °F 1020.9 in NE 14.8 mph 14.8 mph 52 % 0.0 in 121.0 W/m2 CLR
18:45 25.0 °F 14.8 °F 1021.2 in NE 14.8 mph 14.8 mph 53 % 0.0 in 105.0 W/m2 CLR
18:50 24.4 °F 14.2 °F 1021.2 in NNE 14.8 mph 14.8 mph 53 % 0.0 in 90.0 W/m2 CLR
18:55 24.4 °F 14.6 °F 1021.2 in NNE 11.1 mph 11.1 mph 54 % 0.0 in 69.0 W/m2 FEW
19:00 24.4 °F 14.8 °F 1021.2 in NE 11.1 mph 11.1 mph 55 % 0.0 in 56.0 W/m2 SCT
19:05 23.9 °F 14.3 °F 1021.2 in NE 11.1 mph 11.1 mph 55 % 0.0 in 49.0 W/m2 SCT
19:11 23.9 °F 14.6 °F 1021.2 in ENE 9.3 mph 9.3 mph 56 % 0.0 in 35.0 W/m2 BKN
19:16 23.3 °F 14.3 °F 1021.2 in NNE 9.3 mph 9.3 mph 57 % 0.0 in 26.0 W/m2 BKN
19:21 23.3 °F 14.6 °F 1021.2 in NE 5.6 mph 5.6 mph 58 % 0.0 in 19.0 W/m2 BKN
19:26 22.8 °F 14.1 °F 1021.2 in NE 7.4 mph 7.4 mph 58 % 0.0 in 16.0 W/m2 BKN
19:31 22.2 °F 13.8 °F 1021.2 in NE 3.7 mph 3.7 mph 59 % 0.0 in 11.0 W/m2 BKN
19:36 22.2 °F 14.1 °F 1021.2 in Calm     60 % 0.0 in 7.0 W/m2 BKN
19:41 21.7 °F 13.8 °F 1021.2 in Calm     61 % 0.0 in 5.0 W/m2 OVC
19:46 21.1 °F 13.3 °F 1021.2 in Calm     61 % 0.0 in 0.0 W/m2 OVC
19:51 20.6 °F 13.0 °F 1021.6 in Calm     62 % 0.0 in 0.0 W/m2 OVC
19:56 20.0 °F 12.5 °F 1021.6 in Calm     62 % 0.0 in 0.0 W/m2 CLR
20:01 19.4 °F 12.2 °F 1021.6 in Calm     63 % 0.0 in 0.0 W/m2 CLR
20:06 18.9 °F 11.9 °F 1021.6 in Calm     64 % 0.0 in 0.0 W/m2 CLR
20:11 18.9 °F 11.9 °F 1021.6 in Calm     64 % 0.0 in 0.0 W/m2 CLR
20:16 18.3 °F 11.4 °F 1021.6 in Calm     64 % 0.0 in 0.0 W/m2 CLR
20:21 17.8 °F 10.9 °F 1021.6 in Calm     64 % 0.0 in 0.0 W/m2 CLR
20:26 17.8 °F 10.9 °F 1021.6 in East 6.4 mph 6.4 mph 64 % 0.0 in 0.0 W/m2 CLR
20:31 17.2 °F 10.3 °F 1021.6 in Calm     64 % 0.0 in 0.0 W/m2 CLR
20:36 17.2 °F 10.3 °F 1021.6 in Calm     64 % 0.0 in 0.0 W/m2 CLR
20:41 16.7 °F 9.8 °F 1021.9 in Calm     64 % 0.0 in 0.0 W/m2 CLR
20:46 16.7 °F 9.8 °F 1021.9 in Calm     64 % 0.0 in 0.0 W/m2 CLR
20:51 16.1 °F 9.3 °F 1021.9 in Calm     64 % 0.0 in 0.0 W/m2 CLR
20:56 16.1 °F 9.3 °F 1021.9 in East 1.9 mph 1.9 mph 64 % 0.0 in 0.0 W/m2 CLR
21:01 16.1 °F 9.3 °F 1022.2 in Calm     64 % 0.0 in 0.0 W/m2 CLR
21:06 16.1 °F 9.3 °F 1022.2 in Calm     64 % 0.0 in 0.0 W/m2 CLR
21:11 15.6 °F 9.2 °F 1022.2 in ENE 5.6 mph 5.6 mph 66 % 0.0 in 0.0 W/m2 CLR
21:16 15.6 °F 9.2 °F 1022.2 in Calm     66 % 0.0 in 0.0 W/m2 CLR
21:21 15.6 °F 9.2 °F 1022.2 in Calm     66 % 0.0 in 0.0 W/m2 CLR
21:26 15.0 °F 8.9 °F 1022.2 in NNE 3.2 mph 3.2 mph 67 % 0.0 in 0.0 W/m2 CLR
21:31 15.0 °F 8.9 °F 1022.2 in Calm     67 % 0.0 in 0.0 W/m2 CLR
21:36 15.0 °F 9.1 °F 1022.2 in Calm     68 % 0.0 in 0.0 W/m2 CLR
21:41 14.4 °F 8.8 °F 1022.2 in Calm     69 % 0.0 in 0.0 W/m2 CLR
21:46 14.4 °F 9.1 °F 1022.2 in Calm     70 % 0.0 in 0.0 W/m2 CLR
21:51 14.4 °F 9.1 °F 1022.2 in Calm     70 % 0.0 in 0.0 W/m2 CLR
21:56 14.4 °F 9.2 °F 1022.2 in Calm     71 % 0.0 in 0.0 W/m2 CLR
22:01 13.9 °F 8.7 °F 1022.6 in Calm     71 % 0.0 in 0.0 W/m2 CLR
22:06 13.9 °F 8.5 °F 1022.6 in Calm     70 % 0.0 in 0.0 W/m2 CLR
22:11 13.9 °F 8.7 °F 1022.6 in Calm     71 % 0.0 in 0.0 W/m2 CLR
22:12 13.9 °F 8.7 °F 1022.6 in Calm     71 % 0.0 in 0.0 W/m2 CLR
22:17 13.9 °F 9.3 °F 1022.6 in Calm     74 % 0.0 in 0.0 W/m2 CLR
22:22 13.9 °F 9.3 °F 1022.6 in Calm     74 % 0.0 in 0.0 W/m2 CLR
22:27 13.9 °F 8.9 °F 1022.6 in Calm     72 % 0.0 in 0.0 W/m2 CLR
22:32 13.3 °F 8.6 °F 1022.6 in Calm     73 % 0.0 in 0.0 W/m2 CLR
22:37 13.3 °F 8.8 °F 1022.6 in Calm     74 % 0.0 in 0.0 W/m2 CLR
22:42 13.3 °F 9.2 °F 1022.6 in Calm     76 % 0.0 in 0.0 W/m2 CLR
22:47 13.3 °F 9.2 °F 1022.6 in Calm     76 % 0.0 in 0.0 W/m2 CLR
22:52 13.3 °F 9.0 °F 1022.6 in Calm     75 % 0.0 in 0.0 W/m2 CLR
22:57 13.3 °F 9.0 °F 1022.6 in Calm     75 % 0.0 in 0.0 W/m2 CLR
23:02 12.8 °F 8.4 °F 1022.6 in Calm     75 % 0.0 in 0.0 W/m2 CLR
23:07 12.8 °F 8.4 °F 1022.6 in Calm     75 % 0.0 in 0.0 W/m2 CLR
23:12 12.8 °F 8.3 °F 1022.6 in Calm     74 % 0.0 in 0.0 W/m2 CLR
23:17 12.8 °F 8.7 °F 1022.6 in Calm     76 % 0.0 in 0.0 W/m2 CLR
23:22 12.8 °F 9.2 °F 1022.6 in Calm     79 % 0.0 in 0.0 W/m2 CLR
23:27 12.8 °F 8.8 °F 1022.6 in Calm     77 % 0.0 in 0.0 W/m2 CLR
23:32 12.8 °F 8.4 °F 1022.6 in Calm     75 % 0.0 in 0.0 W/m2 CLR
23:37 12.8 °F 8.7 °F 1022.6 in Calm     76 % 0.0 in 0.0 W/m2 CLR
23:42 12.2 °F 8.3 °F 1022.6 in Calm     77 % 0.0 in 0.0 W/m2 CLR
23:47 12.2 °F 8.5 °F 1022.9 in Calm     78 % 0.0 in 0.0 W/m2 CLR
23:52 12.2 °F 8.5 °F 1022.6 in Calm     78 % 0.0 in 0.0 W/m2 CLR
Lo Temps de Massalio
Compliments of Weather Underground - 1.25 mb